Allgood, Alabama
Current Conditions -  °F | °C
As of 6:55 AM on Friday 31 Oct 2014 (Local Time) from KGAD Reporting Station
Clear Clear  
Wind Chill: 37°   Ceiling: Unl
Heat Index: 37°   Visibility: 10mi
Dew Point: 36°   Wind: 3mph
Humidity: 93%   Direction: 260°W
Pressure: 30"   Gusts: NA
Location:  33.91°N, 86.51°W
Report Text: KGAD 311155Z 26003KT 10SM CLR 03/02 A3000 RMK AO1 10060 20030 52003
Loading
Personal Weather Stations






























Interactive Weather Map
Tropical Storm Tracking
New forecast layout! Learn more

10-Day Weather Forecast

Advertisements
Track Severe Weather on mobile